sensor_id;sensor_type;location;lat;lon;timestamp;P1;durP1;ratioP1;P2;durP2;ratioP2
25932;SDS011;13731;51.166;4.474;2023-02-28T00:00:49;74.57;;;70.30;;
25932;SDS011;13731;51.166;4.474;2023-02-28T00:03:15;78.53;;;73.82;;
25932;SDS011;13731;51.166;4.474;2023-02-28T00:05:41;76.22;;;71.70;;
25932;SDS011;13731;51.166;4.474;2023-02-28T00:08:08;72.40;;;68.30;;
25932;SDS011;13731;51.166;4.474;2023-02-28T00:10:34;71.75;;;67.13;;
25932;SDS011;13731;51.166;4.474;2023-02-28T00:13:02;72.65;;;68.47;;
25932;SDS011;13731;51.166;4.474;2023-02-28T00:15:30;72.18;;;67.60;;
25932;SDS011;13731;51.166;4.474;2023-02-28T00:17:56;69.88;;;65.53;;
25932;SDS011;13731;51.166;4.474;2023-02-28T00:20:22;70.10;;;65.75;;
25932;SDS011;13731;51.166;4.474;2023-02-28T00:22:50;66.78;;;62.90;;
25932;SDS011;13731;51.166;4.474;2023-02-28T00:25:24;68.22;;;63.95;;
25932;SDS011;13731;51.166;4.474;2023-02-28T00:27:50;63.78;;;59.92;;
25932;SDS011;13731;51.166;4.474;2023-02-28T00:30:18;69.80;;;65.85;;
25932;SDS011;13731;51.166;4.474;2023-02-28T00:32:48;73.95;;;69.88;;
25932;SDS011;13731;51.166;4.474;2023-02-28T00:35:15;70.53;;;66.40;;
25932;SDS011;13731;51.166;4.474;2023-02-28T00:37:41;72.07;;;67.55;;
25932;SDS011;13731;51.166;4.474;2023-02-28T00:40:08;68.82;;;64.80;;
25932;SDS011;13731;51.166;4.474;2023-02-28T00:42:35;71.20;;;67.00;;
25932;SDS011;13731;51.166;4.474;2023-02-28T00:45:01;70.53;;;66.03;;
25932;SDS011;13731;51.166;4.474;2023-02-28T00:47:29;71.40;;;66.80;;
25932;SDS011;13731;51.166;4.474;2023-02-28T00:49:56;69.43;;;65.53;;
25932;SDS011;13731;51.166;4.474;2023-02-28T00:52:21;73.47;;;69.10;;
25932;SDS011;13731;51.166;4.474;2023-02-28T00:54:47;69.32;;;65.28;;
25932;SDS011;13731;51.166;4.474;2023-02-28T00:57:13;72.07;;;67.97;;
25932;SDS011;13731;51.166;4.474;2023-02-28T00:59:39;65.78;;;61.97;;
25932;SDS011;13731;51.166;4.474;2023-02-28T01:02:05;58.80;;;55.08;;
25932;SDS011;13731;51.166;4.474;2023-02-28T01:04:31;52.25;;;49.13;;
25932;SDS011;13731;51.166;4.474;2023-02-28T01:07:00;50.13;;;46.65;;
25932;SDS011;13731;51.166;4.474;2023-02-28T01:09:27;50.17;;;46.75;;
25932;SDS011;13731;51.166;4.474;2023-02-28T01:11:53;52.30;;;48.65;;
25932;SDS011;13731;51.166;4.474;2023-02-28T01:14:19;51.83;;;48.25;;
25932;SDS011;13731;51.166;4.474;2023-02-28T01:16:45;53.58;;;50.20;;
25932;SDS011;13731;51.166;4.474;2023-02-28T01:19:11;57.75;;;54.10;;
25932;SDS011;13731;51.166;4.474;2023-02-28T01:21:37;52.35;;;48.85;;
25932;SDS011;13731;51.166;4.474;2023-02-28T01:24:04;54.15;;;50.45;;
25932;SDS011;13731;51.166;4.474;2023-02-28T01:26:32;55.85;;;52.40;;
25932;SDS011;13731;51.166;4.474;2023-02-28T01:28:58;53.78;;;50.33;;
25932;SDS011;13731;51.166;4.474;2023-02-28T01:31:24;48.70;;;45.08;;
25932;SDS011;13731;51.166;4.474;2023-02-28T01:33:51;52.15;;;48.90;;
25932;SDS011;13731;51.166;4.474;2023-02-28T01:36:18;47.83;;;44.67;;
25932;SDS011;13731;51.166;4.474;2023-02-28T01:38:46;51.22;;;47.50;;
25932;SDS011;13731;51.166;4.474;2023-02-28T01:41:15;60.45;;;56.50;;
25932;SDS011;13731;51.166;4.474;2023-02-28T01:46:08;61.70;;;57.85;;
25932;SDS011;13731;51.166;4.474;2023-02-28T01:48:36;60.33;;;56.35;;
25932;SDS011;13731;51.166;4.474;2023-02-28T01:51:08;62.00;;;58.08;;
25932;SDS011;13731;51.166;4.474;2023-02-28T01:53:59;63.22;;;59.25;;
25932;SDS011;13731;51.166;4.474;2023-02-28T01:56:28;62.87;;;58.87;;
25932;SDS011;13731;51.166;4.474;2023-02-28T01:58:56;66.43;;;62.47;;
25932;SDS011;13731;51.166;4.474;2023-02-28T02:01:22;72.55;;;67.95;;
25932;SDS011;13731;51.166;4.474;2023-02-28T02:03:55;72.82;;;68.70;;
25932;SDS011;13731;51.166;4.474;2023-02-28T02:06:25;76.63;;;72.28;;
25932;SDS011;13731;51.166;4.474;2023-02-28T02:08:55;71.03;;;66.82;;
25932;SDS011;13731;51.166;4.474;2023-02-28T02:11:22;77.00;;;72.32;;
25932;SDS011;13731;51.166;4.474;2023-02-28T02:16:34;77.70;;;73.00;;
25932;SDS011;13731;51.166;4.474;2023-02-28T02:25:34;76.93;;;72.32;;
25932;SDS011;13731;51.166;4.474;2023-02-28T02:39:36;67.63;;;63.25;;
25932;SDS011;13731;51.166;4.474;2023-02-28T02:42:27;73.25;;;68.88;;
25932;SDS011;13731;51.166;4.474;2023-02-28T02:45:23;72.80;;;68.60;;
25932;SDS011;13731;51.166;4.474;2023-02-28T02:48:01;75.40;;;70.95;;
25932;SDS011;13731;51.166;4.474;2023-02-28T02:53:00;73.28;;;68.82;;
25932;SDS011;13731;51.166;4.474;2023-02-28T02:55:29;75.38;;;70.97;;
25932;SDS011;13731;51.166;4.474;2023-02-28T02:58:04;71.57;;;67.15;;
25932;SDS011;13731;51.166;4.474;2023-02-28T03:00:36;71.53;;;67.10;;
25932;SDS011;13731;51.166;4.474;2023-02-28T03:03:09;71.15;;;66.70;;
25932;SDS011;13731;51.166;4.474;2023-02-28T03:05:41;75.82;;;71.18;;
25932;SDS011;13731;51.166;4.474;2023-02-28T03:08:11;74.13;;;69.88;;
25932;SDS011;13731;51.166;4.474;2023-02-28T03:13:21;77.53;;;73.05;;
25932;SDS011;13731;51.166;4.474;2023-02-28T03:21:06;71.30;;;67.07;;
25932;SDS011;13731;51.166;4.474;2023-02-28T03:23:48;71.85;;;67.45;;
25932;SDS011;13731;51.166;4.474;2023-02-28T03:26:34;78.53;;;73.85;;
25932;SDS011;13731;51.166;4.474;2023-02-28T03:29:27;74.47;;;69.93;;
25932;SDS011;13731;51.166;4.474;2023-02-28T03:32:00;70.35;;;66.10;;
25932;SDS011;13731;51.166;4.474;2023-02-28T03:34:34;64.78;;;60.75;;
25932;SDS011;13731;51.166;4.474;2023-02-28T03:37:06;64.43;;;60.63;;
25932;SDS011;13731;51.166;4.474;2023-02-28T03:39:42;66.22;;;62.08;;
25932;SDS011;13731;51.166;4.474;2023-02-28T03:42:14;60.60;;;56.97;;
25932;SDS011;13731;51.166;4.474;2023-02-28T03:44:45;70.47;;;66.25;;
25932;SDS011;13731;51.166;4.474;2023-02-28T03:47:23;70.28;;;66.15;;
25932;SDS011;13731;51.166;4.474;2023-02-28T03:52:50;72.97;;;68.63;;
25932;SDS011;13731;51.166;4.474;2023-02-28T03:55:26;76.57;;;71.80;;
25932;SDS011;13731;51.166;4.474;2023-02-28T03:57:59;69.85;;;65.68;;
25932;SDS011;13731;51.166;4.474;2023-02-28T04:00:32;74.03;;;69.78;;
25932;SDS011;13731;51.166;4.474;2023-02-28T04:03:03;75.25;;;70.63;;
25932;SDS011;13731;51.166;4.474;2023-02-28T04:05:29;74.00;;;69.30;;
25932;SDS011;13731;51.166;4.474;2023-02-28T04:08:03;74.53;;;69.97;;
25932;SDS011;13731;51.166;4.474;2023-02-28T04:10:30;71.88;;;67.32;;
25932;SDS011;13731;51.166;4.474;2023-02-28T04:12:56;71.00;;;66.90;;
25932;SDS011;13731;51.166;4.474;2023-02-28T04:15:22;74.47;;;70.18;;
25932;SDS011;13731;51.166;4.474;2023-02-28T04:17:50;76.85;;;72.47;;
25932;SDS011;13731;51.166;4.474;2023-02-28T04:20:16;71.55;;;67.32;;
25932;SDS011;13731;51.166;4.474;2023-02-28T04:22:42;69.57;;;65.45;;
25932;SDS011;13731;51.166;4.474;2023-02-28T04:25:08;69.35;;;65.28;;
25932;SDS011;13731;51.166;4.474;2023-02-28T04:27:33;73.40;;;69.20;;
25932;SDS011;13731;51.166;4.474;2023-02-28T04:30:00;69.72;;;65.53;;
25932;SDS011;13731;51.166;4.474;2023-02-28T04:32:26;71.88;;;67.65;;
25932;SDS011;13731;51.166;4.474;2023-02-28T04:34:52;74.60;;;70.55;;
25932;SDS011;13731;51.166;4.474;2023-02-28T04:37:17;74.47;;;69.97;;
25932;SDS011;13731;51.166;4.474;2023-02-28T04:39:43;80.82;;;75.95;;
25932;SDS011;13731;51.166;4.474;2023-02-28T04:42:10;73.00;;;68.72;;
25932;SDS011;13731;51.166;4.474;2023-02-28T04:44:36;76.15;;;71.75;;
25932;SDS011;13731;51.166;4.474;2023-02-28T04:47:02;72.20;;;67.97;;
25932;SDS011;13731;51.166;4.474;2023-02-28T04:49:28;69.30;;;65.18;;
25932;SDS011;13731;51.166;4.474;2023-02-28T04:51:54;77.82;;;73.45;;
25932;SDS011;13731;51.166;4.474;2023-02-28T04:54:20;72.70;;;68.40;;
25932;SDS011;13731;51.166;4.474;2023-02-28T04:56:46;69.25;;;65.10;;
25932;SDS011;13731;51.166;4.474;2023-02-28T04:59:14;76.47;;;71.53;;
25932;SDS011;13731;51.166;4.474;2023-02-28T05:01:40;75.07;;;70.70;;
25932;SDS011;13731;51.166;4.474;2023-02-28T05:04:11;68.57;;;64.20;;
25932;SDS011;13731;51.166;4.474;2023-02-28T05:06:37;73.93;;;69.63;;
25932;SDS011;13731;51.166;4.474;2023-02-28T05:09:03;67.30;;;63.25;;
25932;SDS011;13731;51.166;4.474;2023-02-28T05:11:31;67.05;;;63.35;;
25932;SDS011;13731;51.166;4.474;2023-02-28T05:14:02;65.80;;;61.85;;
25932;SDS011;13731;51.166;4.474;2023-02-28T05:16:34;71.07;;;66.65;;
25932;SDS011;13731;51.166;4.474;2023-02-28T05:19:00;67.60;;;63.45;;
25932;SDS011;13731;51.166;4.474;2023-02-28T05:21:27;67.68;;;63.45;;
25932;SDS011;13731;51.166;4.474;2023-02-28T05:23:59;68.90;;;64.43;;
25932;SDS011;13731;51.166;4.474;2023-02-28T05:26:28;63.58;;;60.10;;
25932;SDS011;13731;51.166;4.474;2023-02-28T05:28:54;67.97;;;63.95;;
25932;SDS011;13731;51.166;4.474;2023-02-28T05:31:21;64.47;;;60.67;;
25932;SDS011;13731;51.166;4.474;2023-02-28T05:33:47;56.83;;;53.72;;
25932;SDS011;13731;51.166;4.474;2023-02-28T05:36:13;58.53;;;55.15;;
25932;SDS011;13731;51.166;4.474;2023-02-28T05:38:39;59.42;;;55.85;;
25932;SDS011;13731;51.166;4.474;2023-02-28T05:41:05;64.95;;;61.25;;
25932;SDS011;13731;51.166;4.474;2023-02-28T05:43:33;64.22;;;60.60;;
25932;SDS011;13731;51.166;4.474;2023-02-28T05:46:01;66.22;;;62.42;;
25932;SDS011;13731;51.166;4.474;2023-02-28T05:48:31;64.82;;;60.80;;
25932;SDS011;13731;51.166;4.474;2023-02-28T05:50:58;60.17;;;56.47;;
25932;SDS011;13731;51.166;4.474;2023-02-28T05:53:24;55.50;;;52.45;;
25932;SDS011;13731;51.166;4.474;2023-02-28T05:55:51;55.40;;;51.63;;
25932;SDS011;13731;51.166;4.474;2023-02-28T05:58:17;49.22;;;46.25;;
25932;SDS011;13731;51.166;4.474;2023-02-28T06:00:43;51.80;;;48.85;;
25932;SDS011;13731;51.166;4.474;2023-02-28T06:03:10;50.45;;;47.25;;
25932;SDS011;13731;51.166;4.474;2023-02-28T06:05:36;51.60;;;48.60;;
25932;SDS011;13731;51.166;4.474;2023-02-28T06:08:03;51.17;;;47.55;;
25932;SDS011;13731;51.166;4.474;2023-02-28T06:10:32;54.33;;;51.10;;
25932;SDS011;13731;51.166;4.474;2023-02-28T06:13:05;53.35;;;50.10;;
25932;SDS011;13731;51.166;4.474;2023-02-28T06:15:31;49.85;;;46.90;;
25932;SDS011;13731;51.166;4.474;2023-02-28T06:17:57;49.70;;;46.70;;
25932;SDS011;13731;51.166;4.474;2023-02-28T06:20:24;53.38;;;49.90;;
25932;SDS011;13731;51.166;4.474;2023-02-28T06:22:55;52.75;;;49.67;;
25932;SDS011;13731;51.166;4.474;2023-02-28T06:25:23;46.20;;;43.42;;
25932;SDS011;13731;51.166;4.474;2023-02-28T06:27:50;44.63;;;41.97;;
25932;SDS011;13731;51.166;4.474;2023-02-28T06:30:16;42.03;;;39.47;;
25932;SDS011;13731;51.166;4.474;2023-02-28T06:32:43;41.35;;;38.65;;
25932;SDS011;13731;51.166;4.474;2023-02-28T06:35:08;45.05;;;41.95;;
25932;SDS011;13731;51.166;4.474;2023-02-28T06:37:35;49.28;;;46.10;;
25932;SDS011;13731;51.166;4.474;2023-02-28T06:40:01;50.45;;;47.05;;
25932;SDS011;13731;51.166;4.474;2023-02-28T06:42:28;42.15;;;39.63;;
25932;SDS011;13731;51.166;4.474;2023-02-28T06:44:56;40.92;;;38.15;;
25932;SDS011;13731;51.166;4.474;2023-02-28T06:47:22;40.33;;;37.63;;
25932;SDS011;13731;51.166;4.474;2023-02-28T06:49:48;42.83;;;40.13;;
25932;SDS011;13731;51.166;4.474;2023-02-28T06:52:16;44.92;;;41.97;;
25932;SDS011;13731;51.166;4.474;2023-02-28T06:54:42;42.40;;;39.72;;
25932;SDS011;13731;51.166;4.474;2023-02-28T06:57:08;42.47;;;39.55;;
25932;SDS011;13731;51.166;4.474;2023-02-28T06:59:34;43.45;;;40.42;;
25932;SDS011;13731;51.166;4.474;2023-02-28T07:02:00;44.63;;;42.08;;
25932;SDS011;13731;51.166;4.474;2023-02-28T07:04:27;45.63;;;43.03;;
25932;SDS011;13731;51.166;4.474;2023-02-28T07:06:54;38.92;;;36.45;;
25932;SDS011;13731;51.166;4.474;2023-02-28T07:09:22;37.58;;;35.17;;
25932;SDS011;13731;51.166;4.474;2023-02-28T07:11:49;41.58;;;38.55;;
25932;SDS011;13731;51.166;4.474;2023-02-28T07:14:15;34.83;;;32.55;;
25932;SDS011;13731;51.166;4.474;2023-02-28T07:16:41;36.15;;;33.70;;
25932;SDS011;13731;51.166;4.474;2023-02-28T07:19:07;35.67;;;33.08;;
25932;SDS011;13731;51.166;4.474;2023-02-28T07:21:33;33.85;;;31.60;;
25932;SDS011;13731;51.166;4.474;2023-02-28T07:23:59;33.10;;;30.27;;
25932;SDS011;13731;51.166;4.474;2023-02-28T07:26:25;34.40;;;31.80;;
25932;SDS011;13731;51.166;4.474;2023-02-28T07:28:51;29.83;;;27.65;;
25932;SDS011;13731;51.166;4.474;2023-02-28T07:31:17;30.00;;;27.88;;
25932;SDS011;13731;51.166;4.474;2023-02-28T07:33:43;31.58;;;29.35;;
25932;SDS011;13731;51.166;4.474;2023-02-28T07:36:11;32.45;;;30.02;;
25932;SDS011;13731;51.166;4.474;2023-02-28T07:38:43;45.53;;;42.38;;
25932;SDS011;13731;51.166;4.474;2023-02-28T07:41:12;33.92;;;31.58;;
25932;SDS011;13731;51.166;4.474;2023-02-28T07:43:37;32.58;;;30.10;;
25932;SDS011;13731;51.166;4.474;2023-02-28T07:46:04;32.53;;;30.08;;
25932;SDS011;13731;51.166;4.474;2023-02-28T07:48:32;34.25;;;32.25;;
25932;SDS011;13731;51.166;4.474;2023-02-28T07:50:58;34.63;;;32.25;;
25932;SDS011;13731;51.166;4.474;2023-02-28T07:53:25;35.25;;;32.92;;
25932;SDS011;13731;51.166;4.474;2023-02-28T07:55:54;38.47;;;35.92;;
25932;SDS011;13731;51.166;4.474;2023-02-28T07:58:24;34.08;;;31.88;;
25932;SDS011;13731;51.166;4.474;2023-02-28T08:00:52;32.38;;;30.08;;
25932;SDS011;13731;51.166;4.474;2023-02-28T08:03:19;31.05;;;28.50;;
25932;SDS011;13731;51.166;4.474;2023-02-28T08:05:46;31.95;;;29.35;;
25932;SDS011;13731;51.166;4.474;2023-02-28T08:08:13;31.05;;;28.92;;
25932;SDS011;13731;51.166;4.474;2023-02-28T08:10:39;30.27;;;28.33;;
25932;SDS011;13731;51.166;4.474;2023-02-28T08:13:05;34.78;;;32.63;;
25932;SDS011;13731;51.166;4.474;2023-02-28T08:15:31;28.13;;;26.52;;
25932;SDS011;13731;51.166;4.474;2023-02-28T08:17:57;36.85;;;34.55;;
25932;SDS011;13731;51.166;4.474;2023-02-28T08:20:24;28.35;;;26.65;;
25932;SDS011;13731;51.166;4.474;2023-02-28T08:22:51;27.08;;;25.40;;
25932;SDS011;13731;51.166;4.474;2023-02-28T08:25:17;29.60;;;27.77;;
25932;SDS011;13731;51.166;4.474;2023-02-28T08:27:43;30.83;;;28.77;;
25932;SDS011;13731;51.166;4.474;2023-02-28T08:30:13;34.97;;;32.80;;
25932;SDS011;13731;51.166;4.474;2023-02-28T08:32:40;70.28;;;65.88;;
25932;SDS011;13731;51.166;4.474;2023-02-28T08:35:06;31.42;;;28.67;;
25932;SDS011;13731;51.166;4.474;2023-02-28T08:37:34;40.42;;;38.20;;
25932;SDS011;13731;51.166;4.474;2023-02-28T08:40:00;29.52;;;27.73;;
25932;SDS011;13731;51.166;4.474;2023-02-28T08:42:26;24.88;;;23.20;;
25932;SDS011;13731;51.166;4.474;2023-02-28T08:44:52;25.60;;;23.77;;
25932;SDS011;13731;51.166;4.474;2023-02-28T08:47:18;30.05;;;28.15;;
25932;SDS011;13731;51.166;4.474;2023-02-28T08:49:44;25.25;;;23.48;;
25932;SDS011;13731;51.166;4.474;2023-02-28T08:52:10;27.00;;;24.70;;
25932;SDS011;13731;51.166;4.474;2023-02-28T08:54:36;23.17;;;21.63;;
25932;SDS011;13731;51.166;4.474;2023-02-28T08:57:02;27.15;;;25.45;;
25932;SDS011;13731;51.166;4.474;2023-02-28T08:59:28;23.08;;;21.67;;
25932;SDS011;13731;51.166;4.474;2023-02-28T09:01:55;22.40;;;21.00;;
25932;SDS011;13731;51.166;4.474;2023-02-28T09:04:21;23.35;;;21.63;;
25932;SDS011;13731;51.166;4.474;2023-02-28T09:06:47;21.48;;;20.17;;
25932;SDS011;13731;51.166;4.474;2023-02-28T09:09:14;23.83;;;22.15;;
25932;SDS011;13731;51.166;4.474;2023-02-28T09:11:40;19.95;;;18.70;;
25932;SDS011;13731;51.166;4.474;2023-02-28T09:14:06;21.10;;;19.77;;
25932;SDS011;13731;51.166;4.474;2023-02-28T09:16:33;20.77;;;19.40;;
25932;SDS011;13731;51.166;4.474;2023-02-28T09:18:59;20.90;;;19.58;;
25932;SDS011;13731;51.166;4.474;2023-02-28T09:21:25;18.80;;;17.60;;
25932;SDS011;13731;51.166;4.474;2023-02-28T09:23:51;18.15;;;17.02;;
25932;SDS011;13731;51.166;4.474;2023-02-28T09:26:23;16.85;;;15.82;;
25932;SDS011;13731;51.166;4.474;2023-02-28T09:28:51;18.70;;;17.25;;
25932;SDS011;13731;51.166;4.474;2023-02-28T09:31:20;32.58;;;30.83;;
25932;SDS011;13731;51.166;4.474;2023-02-28T09:33:48;18.33;;;17.25;;
25932;SDS011;13731;51.166;4.474;2023-02-28T09:36:15;16.42;;;15.60;;
25932;SDS011;13731;51.166;4.474;2023-02-28T09:38:42;16.42;;;15.57;;
25932;SDS011;13731;51.166;4.474;2023-02-28T09:41:13;17.92;;;16.83;;
25932;SDS011;13731;51.166;4.474;2023-02-28T09:43:45;18.45;;;17.15;;
25932;SDS011;13731;51.166;4.474;2023-02-28T09:48:56;18.05;;;17.08;;
25932;SDS011;13731;51.166;4.474;2023-02-28T09:51:37;17.98;;;16.90;;
25932;SDS011;13731;51.166;4.474;2023-02-28T09:54:15;17.80;;;17.00;;
25932;SDS011;13731;51.166;4.474;2023-02-28T09:56:44;19.40;;;18.30;;
25932;SDS011;13731;51.166;4.474;2023-02-28T10:05:11;21.77;;;20.73;;
25932;SDS011;13731;51.166;4.474;2023-02-28T10:10:42;24.95;;;23.65;;
25932;SDS011;13731;51.166;4.474;2023-02-28T10:16:06;22.73;;;21.63;;
25932;SDS011;13731;51.166;4.474;2023-02-28T10:21:52;14.60;;;13.85;;
25932;SDS011;13731;51.166;4.474;2023-02-28T10:24:27;15.05;;;14.15;;
25932;SDS011;13731;51.166;4.474;2023-02-28T10:29:38;14.93;;;14.13;;
25932;SDS011;13731;51.166;4.474;2023-02-28T10:32:08;12.85;;;12.25;;
25932;SDS011;13731;51.166;4.474;2023-02-28T10:34:38;15.90;;;14.98;;
25932;SDS011;13731;51.166;4.474;2023-02-28T10:37:05;13.05;;;12.35;;
25932;SDS011;13731;51.166;4.474;2023-02-28T10:39:37;11.85;;;11.35;;
25932;SDS011;13731;51.166;4.474;2023-02-28T10:42:17;12.60;;;11.88;;
25932;SDS011;13731;51.166;4.474;2023-02-28T10:45:03;13.05;;;12.45;;
25932;SDS011;13731;51.166;4.474;2023-02-28T10:47:52;13.00;;;12.10;;
25932;SDS011;13731;51.166;4.474;2023-02-28T10:55:36;10.27;;;9.77;;
25932;SDS011;13731;51.166;4.474;2023-02-28T10:58:02;9.10;;;8.68;;
25932;SDS011;13731;51.166;4.474;2023-02-28T11:00:34;8.70;;;8.13;;
25932;SDS011;13731;51.166;4.474;2023-02-28T11:03:01;8.93;;;8.52;;
25932;SDS011;13731;51.166;4.474;2023-02-28T11:05:46;8.50;;;8.10;;
25932;SDS011;13731;51.166;4.474;2023-02-28T11:08:14;9.18;;;8.68;;
25932;SDS011;13731;51.166;4.474;2023-02-28T11:10:54;9.82;;;9.23;;
25932;SDS011;13731;51.166;4.474;2023-02-28T11:13:27;10.32;;;9.82;;
25932;SDS011;13731;51.166;4.474;2023-02-28T11:15:58;11.65;;;11.15;;
25932;SDS011;13731;51.166;4.474;2023-02-28T11:21:06;11.55;;;11.05;;
25932;SDS011;13731;51.166;4.474;2023-02-28T11:23:35;15.90;;;14.95;;
25932;SDS011;13731;51.166;4.474;2023-02-28T11:26:05;11.90;;;11.30;;
25932;SDS011;13731;51.166;4.474;2023-02-28T11:28:36;11.52;;;11.02;;
25932;SDS011;13731;51.166;4.474;2023-02-28T11:33:54;11.20;;;10.63;;
25932;SDS011;13731;51.166;4.474;2023-02-28T11:36:22;10.73;;;10.13;;
25932;SDS011;13731;51.166;4.474;2023-02-28T11:39:04;9.90;;;9.50;;
25932;SDS011;13731;51.166;4.474;2023-02-28T11:47:01;9.00;;;8.50;;
25932;SDS011;13731;51.166;4.474;2023-02-28T12:06:01;11.05;;;10.45;;
25932;SDS011;13731;51.166;4.474;2023-02-28T12:11:37;17.55;;;16.65;;
25932;SDS011;13731;51.166;4.474;2023-02-28T12:14:30;14.20;;;13.40;;
25932;SDS011;13731;51.166;4.474;2023-02-28T12:28:21;14.32;;;13.52;;
25932;SDS011;13731;51.166;4.474;2023-02-28T12:33:38;36.60;;;34.95;;
25932;SDS011;13731;51.166;4.474;2023-02-28T12:36:09;17.10;;;16.23;;
25932;SDS011;13731;51.166;4.474;2023-02-28T12:38:45;15.18;;;14.50;;
25932;SDS011;13731;51.166;4.474;2023-02-28T12:41:19;15.73;;;14.85;;
25932;SDS011;13731;51.166;4.474;2023-02-28T12:44:06;18.00;;;17.10;;
25932;SDS011;13731;51.166;4.474;2023-02-28T12:46:58;16.10;;;15.30;;
25932;SDS011;13731;51.166;4.474;2023-02-28T12:49:34;24.85;;;23.65;;
25932;SDS011;13731;51.166;4.474;2023-02-28T12:52:06;15.15;;;14.25;;
25932;SDS011;13731;51.166;4.474;2023-02-28T13:00:29;14.35;;;13.45;;
25932;SDS011;13731;51.166;4.474;2023-02-28T13:06:15;55.22;;;52.25;;
25932;SDS011;13731;51.166;4.474;2023-02-28T13:11:42;14.50;;;13.80;;
25932;SDS011;13731;51.166;4.474;2023-02-28T13:14:51;14.38;;;13.68;;
25932;SDS011;13731;51.166;4.474;2023-02-28T13:19:24;20.88;;;19.83;;
25932;SDS011;13731;51.166;4.474;2023-02-28T13:21:52;20.42;;;19.23;;
25932;SDS011;13731;51.166;4.474;2023-02-28T13:29:30;13.05;;;11.93;;
25932;SDS011;13731;51.166;4.474;2023-02-28T13:34:37;16.15;;;15.15;;
25932;SDS011;13731;51.166;4.474;2023-02-28T13:39:54;14.13;;;13.32;;
25932;SDS011;13731;51.166;4.474;2023-02-28T13:47:28;11.95;;;11.25;;
25932;SDS011;13731;51.166;4.474;2023-02-28T13:55:43;15.07;;;14.38;;
25932;SDS011;13731;51.166;4.474;2023-02-28T14:11:42;16.30;;;15.50;;
25932;SDS011;13731;51.166;4.474;2023-02-28T14:14:09;16.17;;;15.45;;
25932;SDS011;13731;51.166;4.474;2023-02-28T14:16:55;13.32;;;12.43;;
25932;SDS011;13731;51.166;4.474;2023-02-28T14:19:26;10.95;;;10.30;;
25932;SDS011;13731;51.166;4.474;2023-02-28T14:22:07;13.38;;;12.68;;
25932;SDS011;13731;51.166;4.474;2023-02-28T14:27:32;14.63;;;13.93;;
25932;SDS011;13731;51.166;4.474;2023-02-28T14:30:03;16.50;;;15.70;;
25932;SDS011;13731;51.166;4.474;2023-02-28T14:39:10;17.23;;;16.30;;
25932;SDS011;13731;51.166;4.474;2023-02-28T14:41:32;16.30;;;15.15;;
25932;SDS011;13731;51.166;4.474;2023-02-28T14:44:03;19.27;;;18.27;;
25932;SDS011;13731;51.166;4.474;2023-02-28T14:47:02;18.20;;;16.85;;
25932;SDS011;13731;51.166;4.474;2023-02-28T14:49:35;18.65;;;17.55;;
25932;SDS011;13731;51.166;4.474;2023-02-28T14:54:59;15.97;;;15.07;;
25932;SDS011;13731;51.166;4.474;2023-02-28T14:57:29;15.65;;;14.57;;
25932;SDS011;13731;51.166;4.474;2023-02-28T15:02:25;15.45;;;14.65;;
25932;SDS011;13731;51.166;4.474;2023-02-28T15:05:22;16.13;;;15.30;;
25932;SDS011;13731;51.166;4.474;2023-02-28T15:08:15;22.58;;;21.35;;
25932;SDS011;13731;51.166;4.474;2023-02-28T15:10:45;15.80;;;14.70;;
25932;SDS011;13731;51.166;4.474;2023-02-28T15:13:21;18.23;;;16.73;;
25932;SDS011;13731;51.166;4.474;2023-02-28T15:21:25;17.15;;;15.80;;
25932;SDS011;13731;51.166;4.474;2023-02-28T15:24:03;15.98;;;15.18;;
25932;SDS011;13731;51.166;4.474;2023-02-28T15:26:51;16.15;;;15.25;;
25932;SDS011;13731;51.166;4.474;2023-02-28T15:29:24;16.92;;;15.93;;
25932;SDS011;13731;51.166;4.474;2023-02-28T15:32:05;16.40;;;15.30;;
25932;SDS011;13731;51.166;4.474;2023-02-28T15:34:39;12.23;;;11.40;;
25932;SDS011;13731;51.166;4.474;2023-02-28T15:37:24;9.88;;;9.38;;
25932;SDS011;13731;51.166;4.474;2023-02-28T15:39:50;12.25;;;11.55;;
25932;SDS011;13731;51.166;4.474;2023-02-28T15:42:18;13.43;;;12.63;;
25932;SDS011;13731;51.166;4.474;2023-02-28T15:44:46;12.38;;;11.57;;
25932;SDS011;13731;51.166;4.474;2023-02-28T15:49:47;12.10;;;10.98;;
25932;SDS011;13731;51.166;4.474;2023-02-28T15:52:21;13.07;;;12.07;;
25932;SDS011;13731;51.166;4.474;2023-02-28T15:55:12;13.35;;;12.23;;
25932;SDS011;13731;51.166;4.474;2023-02-28T15:57:48;11.88;;;11.07;;
25932;SDS011;13731;51.166;4.474;2023-02-28T16:02:45;11.63;;;10.82;;
25932;SDS011;13731;51.166;4.474;2023-02-28T16:07:43;12.15;;;11.38;;
25932;SDS011;13731;51.166;4.474;2023-02-28T16:10:11;11.85;;;11.05;;
25932;SDS011;13731;51.166;4.474;2023-02-28T16:12:41;13.15;;;12.10;;
25932;SDS011;13731;51.166;4.474;2023-02-28T16:15:20;12.65;;;11.85;;
25932;SDS011;13731;51.166;4.474;2023-02-28T16:17:51;13.18;;;12.07;;
25932;SDS011;13731;51.166;4.474;2023-02-28T16:20:22;11.93;;;11.05;;
25932;SDS011;13731;51.166;4.474;2023-02-28T16:22:52;11.75;;;10.95;;
25932;SDS011;13731;51.166;4.474;2023-02-28T16:25:20;12.15;;;11.40;;
25932;SDS011;13731;51.166;4.474;2023-02-28T16:27:50;12.23;;;10.77;;
25932;SDS011;13731;51.166;4.474;2023-02-28T16:30:26;11.95;;;11.13;;
25932;SDS011;13731;51.166;4.474;2023-02-28T16:32:56;11.82;;;10.75;;
25932;SDS011;13731;51.166;4.474;2023-02-28T16:35:22;12.98;;;11.77;;
25932;SDS011;13731;51.166;4.474;2023-02-28T16:37:50;12.23;;;11.30;;
25932;SDS011;13731;51.166;4.474;2023-02-28T16:40:21;12.95;;;12.05;;
25932;SDS011;13731;51.166;4.474;2023-02-28T16:42:50;13.27;;;12.38;;
25932;SDS011;13731;51.166;4.474;2023-02-28T16:45:19;13.85;;;12.75;;
25932;SDS011;13731;51.166;4.474;2023-02-28T16:47:47;11.65;;;10.93;;
25932;SDS011;13731;51.166;4.474;2023-02-28T16:50:17;13.13;;;12.25;;
25932;SDS011;13731;51.166;4.474;2023-02-28T16:52:47;13.10;;;12.27;;
25932;SDS011;13731;51.166;4.474;2023-02-28T16:55:15;14.45;;;12.18;;
25932;SDS011;13731;51.166;4.474;2023-02-28T16:57:41;13.43;;;12.60;;
25932;SDS011;13731;51.166;4.474;2023-02-28T17:00:10;13.40;;;12.27;;
25932;SDS011;13731;51.166;4.474;2023-02-28T17:02:38;12.52;;;11.50;;
25932;SDS011;13731;51.166;4.474;2023-02-28T17:05:04;13.68;;;12.68;;
25932;SDS011;13731;51.166;4.474;2023-02-28T17:07:31;13.05;;;11.93;;
25932;SDS011;13731;51.166;4.474;2023-02-28T17:09:58;12.50;;;11.50;;
25932;SDS011;13731;51.166;4.474;2023-02-28T17:12:25;12.88;;;11.90;;
25932;SDS011;13731;51.166;4.474;2023-02-28T17:14:51;12.63;;;11.82;;
25932;SDS011;13731;51.166;4.474;2023-02-28T17:17:18;12.15;;;11.20;;
25932;SDS011;13731;51.166;4.474;2023-02-28T17:19:47;12.65;;;11.65;;
25932;SDS011;13731;51.166;4.474;2023-02-28T17:22:13;12.65;;;11.40;;
25932;SDS011;13731;51.166;4.474;2023-02-28T17:24:39;11.93;;;11.15;;
25932;SDS011;13731;51.166;4.474;2023-02-28T17:27:05;12.52;;;11.68;;
25932;SDS011;13731;51.166;4.474;2023-02-28T17:29:33;13.30;;;12.40;;
25932;SDS011;13731;51.166;4.474;2023-02-28T17:31:59;13.95;;;12.68;;
25932;SDS011;13731;51.166;4.474;2023-02-28T17:34:25;13.45;;;12.60;;
25932;SDS011;13731;51.166;4.474;2023-02-28T17:36:51;14.75;;;13.75;;
25932;SDS011;13731;51.166;4.474;2023-02-28T17:39:17;15.02;;;13.93;;
25932;SDS011;13731;51.166;4.474;2023-02-28T17:41:49;13.85;;;12.85;;